Архив погоды в Ильинском

Метеограмма Ильинский
Четверг, 19 Сентября
Время местн. Темп Ветер Видим Явления Облачность нижн/средн/верх Атм. давл. Влжн Точка росы ВНГО R Сост. почвы Tg s
Напр Скр Прв ур.ст ур.м изм
13:00 +10.7° Ю-З 3 17 20 км ливневый дождь облачно 748 750 -0.2 71% +5.7° 1 км - - - -
10:00 +10.3° З,Ю-З 11 15 20 км слабый ливневый дождь преимущественно облачно 748 750 -0.5 70% +5.1° 1 км - - - -
07:00 +8.8° Ю-З 7 14 20 км умеренный или сильный ливневый дождь облачно с прояснениями 749 750 +0.4 72% +4.1° 600 м 4 Влажная (без луж) - -
04:00 +11.3° Ю-З 10 16 10 км - облачно с прояснениями 748 750 +0.2 66% +5.2° 1 км - - - -
01:00 +12.4° Ю-З 11 17 10 км - переменная облачность 748 750 -0.5 79% +8.8° 1 км - - - -
Среда, 18 Сентября
Время местн. Темп Ветер Видим Явления Облачность нижн/средн/верх Атм. давл. Влжн Точка росы ВНГО R Сост. почвы Tg s
Напр Скр Прв ур.ст ур.м изм
22:00 +14° В 10 14 10 км ливневый дождь облачно 749 750 -2.4 89% +12.3° 1 км - - - -
19:00 +14.3° В 10 17 20 км - облачно 751 753 -2.7 79% +10.7° 1 км 0 - - -
16:00 +15.4° В 9 15 более 50 км - облачно 754 755 -2.4 72% +10.3° 1 км - - - -
13:00 +16.8° В,Ю-В 8 12 50 км - облачно 756 758 -1.7 61% +9.3° 1 км - - - -
10:00 +15.5° В 4 8 50 км - переменная облачность 758 760 -1.2 52% +5.8° более 2.5 км - - - -
07:00 +2° В,Ю-В 3 4 более 50 км - ясно 759 761 0 97% +1.6° более 2.5 км 0 Сухая (без трещин) +1° -
04:00 +2.4° В 3 3 10 км - ясно 759 761 -0.4 94% +1.6° более 2.5 км - - - -
01:00 +3.6° В 2 4 10 км - ясно 759 761 +0.2 92% +2.4° более 2.5 км - - - -
Вторник, 17 Сентября
Время местн. Темп Ветер Видим Явления Облачность нижн/средн/верх Атм. давл. Влжн Точка росы ВНГО R Сост. почвы Tg s
Напр Скр Прв ур.ст ур.м изм
22:00 +8.1° В 1 2 10 км - ясно 759 761 +1.6 68% +2.5° более 2.5 км - - - -
19:00 +13.7° С,С-З 5 13 более 50 км - ясно 758 759 +1.1 47% +2.5° более 2.5 км 0 - - -
16:00 +16° З,С-З 8 12 50 км - ясно 757 758 +0.4 55% +7° более 2.5 км - - - -
13:00 +16.4° З,С-З 7 10 50 км - переменная облачность 756 758 +0.1 62% +9.2° 1.5 км - - - -
10:00 +15.6° С-З 8 11 более 50 км - ясно 756 758 +0.3 62% +8.3° более 2.5 км - - - -
07:00 +13.2° С 5 8 50 км - ясно 756 758 +0.9 65% +6.7° более 2.5 км 0 Влажная (без луж) - -
04:00 +9.5° В 1 2 10 км - облачно с прояснениями 755 757 0 97% +9° более 2.5 км - - - -
01:00 +8.7° В,Ю-В 2 4 10 км - переменная облачность 755 757 +0.1 98% +8.4° более 2.5 км - - - -
Понедельник, 16 Сентября
Время местн. Темп Ветер Видим Явления Облачность нижн/средн/верх Атм. давл. Влжн Точка росы ВНГО R Сост. почвы Tg s
Напр Скр Прв ур.ст ур.м изм
22:00 +11° В,Ю-В 3 4 10 км - переменная облачность 755 757 -0.5 97% +10.5° более 2.5 км - - - -
19:00 +14.8° В 2 7 более 50 км - переменная облачность 755 757 +0.4 86% +12.5° более 2.5 км 0 - - -
16:00 +19.4° В 4 8 более 50 км - переменная облачность 755 757 -1.2 66% +12.8° 1.5 км - - - -
13:00 +18.6° В 4 7 более 50 км - облачно 756 758 -1.7 68% +12.6° 1 км - - - -
10:00 +14.7° Ю 1 4 50 км - облачно 758 760 -0.1 86% +12.4° 1 км - - - -